createdAt,value
2017-11-18T00:00:53.976Z,20.27
2017-11-18T00:03:20.376Z,19.60
2017-11-18T00:05:47.513Z,18.57
2017-11-18T00:08:14.673Z,19.63
2017-11-18T00:10:41.167Z,19.77
2017-11-18T00:13:07.573Z,18.90
2017-11-18T00:15:34.077Z,17.70
2017-11-18T00:18:01.205Z,18.30
2017-11-18T00:20:27.588Z,18.93
2017-11-18T00:22:53.985Z,17.87
2017-11-18T00:25:21.143Z,19.90
2017-11-18T00:27:48.278Z,19.10
2017-11-18T00:30:14.690Z,19.63
2017-11-18T00:32:41.109Z,19.40
2017-11-18T00:35:07.517Z,18.77
2017-11-18T00:37:33.950Z,18.70
2017-11-18T00:40:00.411Z,19.00
2017-11-18T00:42:26.824Z,18.33
2017-11-18T00:44:53.217Z,19.03
2017-11-18T00:47:20.344Z,19.60
2017-11-18T00:49:46.742Z,17.87
2017-11-18T00:52:13.135Z,22.43
2017-11-18T00:54:39.533Z,19.50
2017-11-18T00:57:06.021Z,19.67
2017-11-18T00:59:32.428Z,19.97
2017-11-18T01:01:59.564Z,20.07
2017-11-18T01:04:25.965Z,19.87
2017-11-18T01:06:52.359Z,21.40
2017-11-18T01:09:18.747Z,18.97
2017-11-18T01:11:45.240Z,20.40
2017-11-18T01:14:11.671Z,20.00
2017-11-18T01:16:38.060Z,23.20
2017-11-18T01:19:04.465Z,20.13
2017-11-18T01:21:30.865Z,21.50
2017-11-18T01:23:57.247Z,20.80
2017-11-18T01:26:23.796Z,21.00
2017-11-18T01:28:50.946Z,21.83
2017-11-18T01:31:18.146Z,22.70
2017-11-18T01:33:45.242Z,20.07
2017-11-18T01:36:12.411Z,21.33
2017-11-18T01:38:38.831Z,24.13
2017-11-18T01:41:06.010Z,19.67
2017-11-18T01:43:32.425Z,22.73
2017-11-18T01:45:59.589Z,23.20
2017-11-18T01:48:25.998Z,21.43
2017-11-18T01:50:53.175Z,22.63
2017-11-18T01:53:19.571Z,22.67
2017-11-18T01:55:46.729Z,23.03
2017-11-18T01:58:13.881Z,21.07
2017-11-18T02:00:41.025Z,25.23
2017-11-18T02:03:07.486Z,23.70
2017-11-18T02:05:33.903Z,22.10
2017-11-18T02:08:01.073Z,22.67
2017-11-18T02:10:27.503Z,23.13
2017-11-18T02:12:54.092Z,24.30
2017-11-18T02:15:21.329Z,25.17
2017-11-18T02:17:47.769Z,24.67
2017-11-18T02:20:14.198Z,23.67
2017-11-18T02:22:40.655Z,24.43
2017-11-18T02:25:07.844Z,23.60
2017-11-18T02:27:34.280Z,25.90
2017-11-18T02:30:00.715Z,24.93
2017-11-18T02:32:27.268Z,23.80
2017-11-18T02:34:53.711Z,26.27
2017-11-18T02:37:20.174Z,25.07
2017-11-18T02:39:46.629Z,26.80
2017-11-18T02:42:13.826Z,25.20
2017-11-18T02:44:40.262Z,26.43
2017-11-18T02:47:06.757Z,25.80
2017-11-18T02:49:33.221Z,26.90
2017-11-18T02:51:59.690Z,27.20
2017-11-18T02:54:26.159Z,25.43
2017-11-18T02:56:52.581Z,25.40
2017-11-18T02:59:19.032Z,26.37
2017-11-18T03:01:45.436Z,25.57
2017-11-18T03:04:12.588Z,25.60
2017-11-18T03:06:39.733Z,23.73
2017-11-18T03:09:06.958Z,25.73
2017-11-18T03:11:33.370Z,25.00
2017-11-18T03:13:59.852Z,25.10
2017-11-18T03:16:27.049Z,24.03
2017-11-18T03:18:53.502Z,25.40
2017-11-18T03:21:19.929Z,26.30
2017-11-18T03:23:46.358Z,26.23
2017-11-18T03:26:12.773Z,26.47
2017-11-18T03:28:39.203Z,27.23
2017-11-18T03:31:05.630Z,25.60
2017-11-18T03:33:32.161Z,25.50
2017-11-18T03:35:58.604Z,30.10
2017-11-18T03:38:24.994Z,29.10
2017-11-18T03:40:51.421Z,27.87
2017-11-18T03:43:17.845Z,26.63
2017-11-18T03:45:44.298Z,30.43
2017-11-18T03:48:11.472Z,27.67
2017-11-18T03:50:37.902Z,26.67
2017-11-18T03:53:04.304Z,26.40
2017-11-18T03:55:31.449Z,26.30
2017-11-18T03:57:57.881Z,28.03
2017-11-18T04:00:24.322Z,25.50
2017-11-18T04:02:50.740Z,30.17
2017-11-18T04:05:17.182Z,25.03
2017-11-18T04:07:43.605Z,26.13
2017-11-18T04:10:10.046Z,27.57
2017-11-18T04:12:36.462Z,25.20
2017-11-18T04:15:02.893Z,24.87
2017-11-18T04:17:29.444Z,28.10
2017-11-18T04:19:55.949Z,30.23
2017-11-18T04:22:22.338Z,26.17
2017-11-18T04:24:49.497Z,32.93
2017-11-18T04:27:15.964Z,30.03
2017-11-18T04:29:42.374Z,28.07
2017-11-18T04:32:08.833Z,27.90
2017-11-18T04:34:35.273Z,28.53
2017-11-18T04:37:01.723Z,27.40
2017-11-18T04:39:28.199Z,30.80
2017-11-18T04:41:54.637Z,32.70
2017-11-18T04:44:21.069Z,29.10
2017-11-18T04:46:47.466Z,29.23
2017-11-18T04:49:13.895Z,30.43
2017-11-18T04:51:40.334Z,27.70
2017-11-18T06:57:41.962Z,40.00
2017-11-18T07:00:13.558Z,37.27
2017-11-18T07:02:45.043Z,34.97
2017-11-18T07:05:16.566Z,40.60
2017-11-18T07:07:48.049Z,37.90
2017-11-18T07:10:14.524Z,37.10
2017-11-18T07:12:40.908Z,33.00
2017-11-18T07:15:07.346Z,39.10
2017-11-18T07:17:33.765Z,36.23
2017-11-18T07:26:19.797Z,33.00
2017-11-18T07:28:46.929Z,36.50
2017-11-18T07:31:14.088Z,34.07
2017-11-18T07:33:41.221Z,32.40
2017-11-18T07:36:08.383Z,34.60
2017-11-18T07:38:35.520Z,31.33
2017-11-18T07:41:01.908Z,30.17
2017-11-18T07:43:28.351Z,29.77
2017-11-18T07:45:54.774Z,27.43
2017-11-18T07:48:21.193Z,30.90
2017-11-18T07:50:47.611Z,30.07
2017-11-18T07:53:14.009Z,29.33
2017-11-18T07:55:40.406Z,30.50
2017-11-18T07:58:06.806Z,29.33
2017-11-18T08:00:33.210Z,27.93
2017-11-18T08:02:59.714Z,30.50
2017-11-18T08:05:26.115Z,34.47
2017-11-18T08:07:52.513Z,28.67
2017-11-18T08:10:19.706Z,31.30
2017-11-18T08:12:46.123Z,30.80
2017-11-18T08:15:12.546Z,29.90
2017-11-18T08:17:39.696Z,32.83
2017-11-18T08:20:06.506Z,31.63
2017-11-18T08:22:33.668Z,29.20
2017-11-18T08:25:01.627Z,35.97
2017-11-18T08:27:28.022Z,31.17
2017-11-18T08:29:54.432Z,42.20
2017-11-18T08:32:20.882Z,37.07
2017-11-18T08:34:47.301Z,35.13
2017-11-18T08:37:13.884Z,35.73
2017-11-18T08:39:40.303Z,32.70
2017-11-18T08:42:06.701Z,28.50
2017-11-18T08:44:33.103Z,30.90
2017-11-18T08:46:59.517Z,27.33
2017-11-18T08:49:25.929Z,29.43
2017-11-18T08:51:52.332Z,31.27
2017-11-18T08:54:18.733Z,30.80
2017-11-18T08:56:45.918Z,30.40
2017-11-18T08:59:18.490Z,28.13
2017-11-18T09:01:44.954Z,30.67
2017-11-18T09:04:11.663Z,30.30
2017-11-18T09:06:38.205Z,29.40
2017-11-18T09:09:04.601Z,31.07
2017-11-18T09:11:32.478Z,29.63
2017-11-18T09:13:59.762Z,33.83
2017-11-18T09:16:26.144Z,30.47
2017-11-18T09:18:52.653Z,34.07
2017-11-18T09:21:19.150Z,28.47
2017-11-18T09:23:45.536Z,29.83
2017-11-18T09:26:11.934Z,30.23
2017-11-18T09:28:38.359Z,28.87
2017-11-18T09:31:04.783Z,29.07
2017-11-18T09:33:31.190Z,30.40
2017-11-18T09:35:57.584Z,30.27
2017-11-18T09:38:23.994Z,28.80
2017-11-18T09:40:51.148Z,27.50
2017-11-18T09:43:17.556Z,29.77
2017-11-18T09:45:44.689Z,32.57
2017-11-18T09:48:11.817Z,29.53
2017-11-18T09:50:38.225Z,27.10
2017-11-18T09:53:04.625Z,27.27
2017-11-18T09:55:31.026Z,27.60
2017-11-18T09:57:58.189Z,27.70
2017-11-18T10:00:25.357Z,25.87
2017-11-18T10:02:51.746Z,25.20
2017-11-18T10:05:18.205Z,28.97
2017-11-18T10:07:45.381Z,26.97
2017-11-18T10:10:11.865Z,25.13
2017-11-18T10:12:39.797Z,19.80
2017-11-18T10:15:06.202Z,17.57
2017-11-18T10:17:32.648Z,17.70
2017-11-18T10:19:59.124Z,16.80
2017-11-18T10:22:25.554Z,16.10
2017-11-18T10:24:53.600Z,17.00
2017-11-18T10:27:20.014Z,18.17
2017-11-18T10:29:46.511Z,22.23
2017-11-18T10:32:13.652Z,37.17
2017-11-18T10:34:41.567Z,38.63
2017-11-18T10:37:07.997Z,25.53
2017-11-18T10:39:34.414Z,22.00
2017-11-18T10:42:00.839Z,20.60
2017-11-18T10:44:27.305Z,22.47
2017-11-18T10:46:53.734Z,22.73
2017-11-18T10:49:20.210Z,21.73
2017-11-18T10:51:48.180Z,17.43
2017-11-18T10:54:14.633Z,16.77
2017-11-18T10:56:41.829Z,14.57
2017-11-18T10:59:08.247Z,15.60
2017-11-18T11:01:34.743Z,14.03
2017-11-18T11:04:01.982Z,13.20
2017-11-18T11:06:29.960Z,15.30
2017-11-18T11:08:57.197Z,13.43
2017-11-18T11:11:23.669Z,13.57
2017-11-18T11:13:50.850Z,14.40
2017-11-18T11:16:17.333Z,14.10
2017-11-18T11:18:45.394Z,13.60
2017-11-18T11:21:11.838Z,14.27
2017-11-18T11:23:39.742Z,14.57
2017-11-18T11:26:19.383Z,11.63
2017-11-18T11:28:59.272Z,12.17
2017-11-18T11:31:38.998Z,12.17
2017-11-18T11:34:05.451Z,13.50
2017-11-18T11:36:31.875Z,11.20
2017-11-18T11:38:58.289Z,11.60
2017-11-18T11:41:24.677Z,13.07
2017-11-18T11:43:51.114Z,10.50
2017-11-18T11:46:18.327Z,10.90
2017-11-18T11:48:44.793Z,11.60
2017-11-18T11:51:11.207Z,11.43
2017-11-18T11:53:39.148Z,11.30
2017-11-18T11:56:05.592Z,11.20
2017-11-18T11:58:32.007Z,11.87
2017-11-18T12:00:58.427Z,10.37
2017-11-18T12:03:24.892Z,12.83
2017-11-18T12:05:51.345Z,11.03
2017-11-18T12:08:17.842Z,11.30
2017-11-18T12:10:44.318Z,10.87
2017-11-18T12:13:10.873Z,12.57
2017-11-18T12:15:38.104Z,10.40
2017-11-18T12:18:04.632Z,12.50
2017-11-18T12:20:31.121Z,12.90
2017-11-18T12:22:57.673Z,12.80
2017-11-18T12:25:24.150Z,12.57
2017-11-18T12:27:51.375Z,13.57
2017-11-18T12:30:17.835Z,12.30
2017-11-18T12:32:44.282Z,12.30
2017-11-18T12:35:11.557Z,12.83
2017-11-18T12:37:38.859Z,13.87
2017-11-18T12:40:05.323Z,12.70
2017-11-18T12:42:31.762Z,13.70
2017-11-18T12:44:58.967Z,12.77
2017-11-18T12:47:25.408Z,12.47
2017-11-18T12:49:51.898Z,11.43
2017-11-18T12:52:18.281Z,15.37
2017-11-18T12:54:44.795Z,14.30
2017-11-18T12:57:11.205Z,13.03
2017-11-18T12:59:37.621Z,13.97
2017-11-18T13:02:04.073Z,14.67
2017-11-18T13:04:30.537Z,15.03
2017-11-18T13:06:56.961Z,14.37
2017-11-18T13:09:23.360Z,13.77
2017-11-18T13:11:49.756Z,13.00
2017-11-18T13:14:17.657Z,16.80
2017-11-18T13:16:44.064Z,14.07
2017-11-18T13:19:11.254Z,14.33
2017-11-18T13:21:38.648Z,15.30
2017-11-18T13:24:05.316Z,12.07
2017-11-18T13:26:31.781Z,12.93
2017-11-18T13:28:58.194Z,12.07
2017-11-18T13:31:24.656Z,11.90
2017-11-18T13:33:51.127Z,13.00
2017-11-18T13:36:19.072Z,12.77
2017-11-18T13:38:45.475Z,13.87
2017-11-18T13:41:11.914Z,12.70
2017-11-18T13:43:38.375Z,14.33
2017-11-18T13:46:04.777Z,16.00
2017-11-18T13:48:31.180Z,14.60
2017-11-18T13:50:58.310Z,16.37
2017-11-18T13:53:24.900Z,15.23
2017-11-18T13:55:51.305Z,15.83
2017-11-18T13:58:17.709Z,19.07
2017-11-18T14:00:45.607Z,17.03
2017-11-18T14:03:12.761Z,16.33
2017-11-18T14:05:39.967Z,18.00
2017-11-18T14:08:07.927Z,16.87
2017-11-18T14:10:34.382Z,17.47
2017-11-18T14:13:01.573Z,16.70
2017-11-18T14:15:27.980Z,14.53
2017-11-18T14:17:54.483Z,16.33
2017-11-18T14:20:20.897Z,14.60
2017-11-18T14:22:47.300Z,13.10
2017-11-18T14:25:13.734Z,14.90
2017-11-18T14:27:40.161Z,15.07
2017-11-18T14:30:07.479Z,12.70
2017-11-18T14:32:33.880Z,15.93
2017-11-18T14:35:00.292Z,14.73
2017-11-18T14:37:26.725Z,14.97
2017-11-18T14:39:53.161Z,14.13
2017-11-18T14:42:19.836Z,15.10
2017-11-18T14:44:46.249Z,13.10
2017-11-18T14:47:14.774Z,14.33
2017-11-18T14:49:41.201Z,13.77
2017-11-18T14:52:08.360Z,11.57
2017-11-18T14:54:35.542Z,11.80
2017-11-18T14:57:02.098Z,12.63
2017-11-18T14:59:28.550Z,11.47
2017-11-18T15:01:55.040Z,12.40
2017-11-18T15:04:21.551Z,11.07
2017-11-18T15:06:48.758Z,11.90
2017-11-18T15:09:15.259Z,12.67
2017-11-18T15:11:41.748Z,12.43
2017-11-18T15:14:09.244Z,11.90
2017-11-18T15:16:42.581Z,11.17
2017-11-18T15:19:24.906Z,11.30
2017-11-18T15:21:52.941Z,10.90
2017-11-18T15:24:25.476Z,13.50
2017-11-18T15:27:07.601Z,12.43
2017-11-18T15:29:35.141Z,11.80
2017-11-18T15:32:09.257Z,11.93
2017-11-18T15:34:42.404Z,10.87
2017-11-18T15:37:14.916Z,13.80
2017-11-18T15:39:42.205Z,12.93
2017-11-18T15:42:08.688Z,13.80
2017-11-18T15:44:37.616Z,11.90
2017-11-18T15:47:19.886Z,12.57
2017-11-18T15:49:53.114Z,11.33
2017-11-18T15:52:22.369Z,12.20
2017-11-18T15:55:08.568Z,12.30
2017-11-18T15:57:39.074Z,11.27
2017-11-18T16:00:05.574Z,12.70
2017-11-18T16:05:37.295Z,13.30
2017-11-18T16:08:14.558Z,12.20
2017-11-18T16:10:40.999Z,12.20
2017-11-18T16:13:07.453Z,11.23
2017-11-18T16:15:33.930Z,12.73
2017-11-18T16:18:00.397Z,12.40
2017-11-18T16:20:26.848Z,11.83
2017-11-18T16:22:53.266Z,12.47
2017-11-18T16:25:19.696Z,12.90
2017-11-18T16:27:46.149Z,12.63
2017-11-18T16:30:12.616Z,13.67
2017-11-18T16:32:39.805Z,12.43
2017-11-18T16:35:06.250Z,11.43
2017-11-18T16:37:32.712Z,12.70
2017-11-18T16:39:59.145Z,14.87
2017-11-18T16:42:25.579Z,12.17
2017-11-18T16:44:52.016Z,12.67
2017-11-18T16:47:18.513Z,13.33
2017-11-18T16:49:44.962Z,13.03
2017-11-18T16:52:11.408Z,12.87
2017-11-18T16:54:37.878Z,12.00
2017-11-18T16:57:04.351Z,13.30
2017-11-18T16:59:30.822Z,12.17
2017-11-18T17:01:58.028Z,12.23
2017-11-18T17:04:24.535Z,11.13
2017-11-18T17:06:50.969Z,12.60
2017-11-18T17:09:17.557Z,12.20
2017-11-18T17:11:44.024Z,12.70
2017-11-18T17:14:11.226Z,14.00
2017-11-18T17:16:37.774Z,12.77
2017-11-18T17:19:04.243Z,12.80
2017-11-18T17:21:31.433Z,15.97
2017-11-18T17:23:57.942Z,13.50
2017-11-18T17:26:24.358Z,13.63
2017-11-18T17:28:51.556Z,13.03
2017-11-18T17:31:18.003Z,16.00
2017-11-18T17:33:44.440Z,15.37
2017-11-18T17:36:10.889Z,16.30
2017-11-18T17:38:38.103Z,15.37
2017-11-18T17:41:04.562Z,16.23
2017-11-18T17:43:31.017Z,15.83
2017-11-18T17:45:58.227Z,15.33
2017-11-18T17:48:24.682Z,14.63
2017-11-18T17:50:51.137Z,14.63
2017-11-18T17:53:18.345Z,16.90
2017-11-18T17:55:44.895Z,14.70
2017-11-18T17:58:11.418Z,14.53
2017-11-18T18:00:37.847Z,14.20
2017-11-18T18:03:04.317Z,15.90
2017-11-18T18:05:30.748Z,14.90
2017-11-18T18:07:57.213Z,15.13
2017-11-18T18:10:23.979Z,17.40
2017-11-18T18:12:50.502Z,16.30
2017-11-18T18:15:16.944Z,14.73
2017-11-18T18:17:43.500Z,29.63
2017-11-18T18:20:09.959Z,19.47
2017-11-18T18:22:36.561Z,15.60
2017-11-18T18:25:03.011Z,17.50
2017-11-18T18:27:29.454Z,16.10
2017-11-18T18:29:55.861Z,18.37
2017-11-18T18:32:23.884Z,19.33
2017-11-18T18:34:51.087Z,18.13
2017-11-18T18:37:17.533Z,17.07
2017-11-18T18:39:44.719Z,15.70
2017-11-18T18:42:11.868Z,15.63
2017-11-18T18:44:39.065Z,21.70
2017-11-18T18:47:05.505Z,17.60
2017-11-18T18:49:31.937Z,15.90
2017-11-18T18:51:58.386Z,16.97
2017-11-18T18:54:24.852Z,15.77
2017-11-18T18:56:52.027Z,14.83
2017-11-18T18:59:18.510Z,14.53
2017-11-18T19:01:45.692Z,15.83
2017-11-18T19:04:12.199Z,15.80
2017-11-18T19:06:38.792Z,16.20
2017-11-18T19:09:05.247Z,14.63
2017-11-18T19:11:32.191Z,15.50
2017-11-18T19:13:58.635Z,15.67
2017-11-18T19:16:25.652Z,17.07
2017-11-18T19:18:52.203Z,15.80
2017-11-18T19:21:18.669Z,14.53
2017-11-18T19:23:45.819Z,14.40
2017-11-18T19:26:13.750Z,15.07
2017-11-18T19:28:40.194Z,15.53
2017-11-18T19:31:06.626Z,13.57
2017-11-18T19:33:33.063Z,15.27
2017-11-18T19:35:59.490Z,15.10
2017-11-18T19:38:25.942Z,14.00
2017-11-18T19:40:52.443Z,13.20
2017-11-18T19:43:18.880Z,13.57
2017-11-18T19:45:45.333Z,15.00
2017-11-18T19:48:11.827Z,13.90
2017-11-18T19:50:38.265Z,14.43
2017-11-18T19:53:04.735Z,13.20
2017-11-18T19:55:31.209Z,14.10
2017-11-18T19:57:57.627Z,12.70
2017-11-18T20:00:24.807Z,12.30
2017-11-18T20:02:51.237Z,12.80
2017-11-18T20:05:17.706Z,12.67
2017-11-18T20:07:44.172Z,11.50
2017-11-18T20:10:11.443Z,11.67
2017-11-18T20:12:37.889Z,11.30
2017-11-18T20:15:04.361Z,11.70
2017-11-18T20:17:30.839Z,12.20
2017-11-18T20:19:58.189Z,12.27
2017-11-18T20:22:25.389Z,11.80
2017-11-18T20:24:53.115Z,11.40
2017-11-18T20:27:20.325Z,10.10
2017-11-18T20:29:46.763Z,12.10
2017-11-18T20:32:14.127Z,11.63
2017-11-18T20:34:41.284Z,12.77
2017-11-18T20:37:08.468Z,10.33
2017-11-18T20:39:34.891Z,11.20
2017-11-18T20:42:02.051Z,10.60
2017-11-18T20:44:28.513Z,9.77
2017-11-18T20:46:56.109Z,10.40
2017-11-18T20:49:23.249Z,10.60
2017-11-18T20:51:50.528Z,9.63
2017-11-18T20:54:17.679Z,11.87
2017-11-18T20:56:44.809Z,11.97
2017-11-18T20:59:11.953Z,11.27
2017-11-18T21:01:38.372Z,11.70
2017-11-18T21:04:04.789Z,10.33
2017-11-18T21:06:31.212Z,10.50
2017-11-18T21:08:57.594Z,11.07
2017-11-18T21:11:23.977Z,12.33
2017-11-18T21:13:51.186Z,11.00
2017-11-18T21:16:18.321Z,11.33
2017-11-18T21:18:45.451Z,10.97
2017-11-18T21:21:11.856Z,11.70
2017-11-18T21:23:38.269Z,10.93
2017-11-18T21:26:05.474Z,10.97
2017-11-18T21:28:32.607Z,11.03
2017-11-18T21:30:59.037Z,11.23
2017-11-18T21:33:25.459Z,10.87
2017-11-18T21:35:51.875Z,10.00
2017-11-18T21:38:18.284Z,10.53
2017-11-18T21:40:45.449Z,10.37
2017-11-18T21:43:11.849Z,9.70
2017-11-18T21:45:39.020Z,10.77
2017-11-18T21:48:05.421Z,10.00
2017-11-18T21:50:32.649Z,9.67
2017-11-18T21:52:59.064Z,10.53
2017-11-18T21:55:25.458Z,10.93
2017-11-18T21:57:52.599Z,10.80
2017-11-18T22:00:18.996Z,10.63
2017-11-18T22:02:45.399Z,10.30
2017-11-18T22:05:11.801Z,10.30
2017-11-18T22:07:38.968Z,8.77
2017-11-18T22:10:05.389Z,9.70
2017-11-18T22:12:32.537Z,10.30
2017-11-18T22:14:59.698Z,9.80
2017-11-18T22:17:26.828Z,10.90
2017-11-18T22:19:54.038Z,9.13
2017-11-18T22:22:20.464Z,10.13
2017-11-18T22:24:46.884Z,10.47
2017-11-18T22:27:13.445Z,10.50
2017-11-18T22:29:39.860Z,10.10
2017-11-18T22:32:06.281Z,9.50
2017-11-18T22:34:33.306Z,9.57
2017-11-18T22:37:00.445Z,10.37
2017-11-18T22:39:27.625Z,10.20
2017-11-18T22:41:54.037Z,10.17
2017-11-18T22:44:21.169Z,10.93
2017-11-18T22:46:48.304Z,11.00
2017-11-18T22:49:14.702Z,10.67
2017-11-18T22:51:41.118Z,10.07
2017-11-18T22:54:07.612Z,10.97
2017-11-18T22:56:34.006Z,10.70
2017-11-18T22:59:00.396Z,9.60
2017-11-18T23:01:27.532Z,9.37
2017-11-18T23:03:54.730Z,9.93
2017-11-18T23:06:21.133Z,11.57
2017-11-18T23:08:48.261Z,9.87
2017-11-18T23:11:15.397Z,9.53
2017-11-18T23:13:41.819Z,9.57
2017-11-18T23:16:08.233Z,8.53
2017-11-18T23:18:34.638Z,9.90
2017-11-18T23:21:01.049Z,9.77
2017-11-18T23:23:28.224Z,8.77
2017-11-18T23:25:54.668Z,8.83
2017-11-18T23:28:21.126Z,8.43
2017-11-18T23:30:47.560Z,8.53
2017-11-18T23:33:13.979Z,8.10
2017-11-18T23:35:40.396Z,8.20
2017-11-18T23:38:06.813Z,7.90
2017-11-18T23:40:33.216Z,8.80
2017-11-18T23:43:00.365Z,9.30
2017-11-18T23:45:27.569Z,6.70
2017-11-18T23:47:53.978Z,7.33
2017-11-18T23:50:20.580Z,6.60
2017-11-18T23:52:47.020Z,6.63
2017-11-18T23:55:14.167Z,6.73
2017-11-18T23:57:40.586Z,7.00
